createdAt,value
2022-10-17T00:00:06.426Z,5.8
2022-10-17T00:02:04.966Z,6.2
2022-10-17T00:04:04.937Z,5.9
2022-10-17T00:06:07.759Z,6.4
2022-10-17T00:08:05.254Z,5.8
2022-10-17T00:10:05.871Z,6.1
2022-10-17T00:12:05.407Z,5.2
2022-10-17T00:14:05.330Z,5.9
2022-10-17T00:16:06.484Z,6.1
2022-10-17T00:18:05.213Z,5.9
2022-10-17T00:20:06.301Z,5.3
2022-10-17T00:22:05.190Z,5.3
2022-10-17T00:24:05.869Z,5.9
2022-10-17T00:26:05.483Z,5.3
2022-10-17T00:28:08.361Z,5.6
2022-10-17T00:30:07.730Z,5.2
2022-10-17T00:32:05.567Z,5.3
2022-10-17T00:34:05.350Z,5.5
2022-10-17T00:36:08.898Z,4.9
2022-10-17T00:38:05.374Z,5.5
2022-10-17T00:40:07.677Z,5.1
2022-10-17T00:42:06.108Z,5
2022-10-17T00:44:21.884Z,5.3
2022-10-17T00:46:06.885Z,4.7
2022-10-17T00:48:08.897Z,4.9
2022-10-17T00:50:07.099Z,5
2022-10-17T00:52:09.031Z,5.4
2022-10-17T00:54:08.067Z,5
2022-10-17T00:56:06.354Z,5.2
2022-10-17T00:58:06.233Z,5
2022-10-17T01:00:09.559Z,4.7
2022-10-17T01:02:10.061Z,5.3
2022-10-17T01:04:05.841Z,5.3
2022-10-17T01:06:05.799Z,4.7
2022-10-17T01:08:07.123Z,4.8
2022-10-17T01:10:07.746Z,4.7
2022-10-17T01:12:19.673Z,4.9
2022-10-17T01:14:14.973Z,4.7
2022-10-17T01:16:13.521Z,4.7
2022-10-17T01:18:16.709Z,4.6
2022-10-17T01:20:29.101Z,4.7
2022-10-17T01:22:10.509Z,4.6
2022-10-17T01:24:35.550Z,4.9
2022-10-17T01:26:19.108Z,5.1
2022-10-17T01:28:21.879Z,4.6
2022-10-17T01:30:35.519Z,4.5
2022-10-17T01:32:13.879Z,4.6
2022-10-17T01:34:13.862Z,5
2022-10-17T01:36:11.824Z,4.6
2022-10-17T01:38:10.920Z,4.9
2022-10-17T01:40:11.891Z,4.7
2022-10-17T01:42:12.742Z,4.7
2022-10-17T01:44:11.927Z,4.2
2022-10-17T01:46:13.113Z,4.6
2022-10-17T01:48:15.435Z,4.6
2022-10-17T01:50:11.523Z,4.8
2022-10-17T01:52:11.247Z,4.7
2022-10-17T01:54:11.362Z,4
2022-10-17T01:56:10.636Z,4.8
2022-10-17T01:58:09.974Z,4.9
2022-10-17T02:00:13.873Z,4.7
2022-10-17T02:02:08.365Z,4.5
2022-10-17T02:04:09.031Z,4.7
2022-10-17T02:06:08.591Z,4.3
2022-10-17T02:08:07.154Z,4.8
2022-10-17T02:10:15.619Z,4.3
2022-10-17T02:12:24.961Z,4.8
2022-10-17T02:14:19.282Z,4.4
2022-10-17T02:16:17.944Z,4
2022-10-17T02:18:20.444Z,4.4
2022-10-17T02:20:16.209Z,4.6
2022-10-17T02:22:19.154Z,4.4
2022-10-17T02:24:17.101Z,4.5
2022-10-17T02:26:11.378Z,4.4
2022-10-17T02:28:19.557Z,4.6
2022-10-17T02:30:11.845Z,4.4
2022-10-17T02:32:11.886Z,4.1
2022-10-17T02:34:12.523Z,4.1
2022-10-17T02:36:12.596Z,4.3
2022-10-17T02:38:10.037Z,4.2
2022-10-17T02:40:11.445Z,4.2
2022-10-17T02:42:10.584Z,4.1
2022-10-17T02:44:08.825Z,4.1
2022-10-17T02:46:07.379Z,4.1
2022-10-17T02:48:14.046Z,4.3
2022-10-17T02:50:10.767Z,4.2
2022-10-17T02:52:12.526Z,4.6
2022-10-17T02:54:13.807Z,4.5
2022-10-17T02:56:15.828Z,4.7
2022-10-17T02:58:14.479Z,4.1
2022-10-17T03:00:11.624Z,4.2
2022-10-17T03:02:07.308Z,4.4
2022-10-17T03:04:09.543Z,4.4
2022-10-17T03:06:07.390Z,4.5
2022-10-17T03:08:07.452Z,4.4
2022-10-17T03:10:07.761Z,4.4
2022-10-17T03:12:07.789Z,4.4
2022-10-17T03:14:07.510Z,4.2
2022-10-17T03:16:08.004Z,4.7
2022-10-17T03:18:08.102Z,4.3
2022-10-17T03:20:07.964Z,4.7
2022-10-17T03:22:08.438Z,4.5
2022-10-17T03:24:07.462Z,4.6
2022-10-17T03:26:08.601Z,4.8
2022-10-17T03:28:08.479Z,4.5
2022-10-17T03:30:09.733Z,4.4
2022-10-17T03:32:08.354Z,4.3
2022-10-17T03:34:07.726Z,4.8
2022-10-17T03:36:10.142Z,4.7
2022-10-17T03:38:07.653Z,4.4
2022-10-17T03:40:08.311Z,4.6
2022-10-17T03:42:07.921Z,4.4
2022-10-17T03:44:07.766Z,4.4
2022-10-17T03:46:08.204Z,5
2022-10-17T03:48:07.780Z,4.3
2022-10-17T03:50:09.763Z,5.1
2022-10-17T03:52:10.905Z,4.9
2022-10-17T03:54:08.134Z,4.9
2022-10-17T03:56:10.718Z,4.8
2022-10-17T03:58:07.832Z,4.9
2022-10-17T04:00:14.601Z,4.2
2022-10-17T04:02:07.964Z,4.4
2022-10-17T04:04:08.836Z,4.5
2022-10-17T04:06:11.928Z,4.9
2022-10-17T04:08:23.858Z,4.7
2022-10-17T04:10:09.037Z,5
2022-10-17T04:12:09.192Z,4.5
2022-10-17T04:14:10.539Z,5.4
2022-10-17T04:16:14.951Z,4.9
2022-10-17T04:18:08.325Z,4.9
2022-10-17T04:20:08.819Z,5
2022-10-17T04:22:10.034Z,5
2022-10-17T04:24:18.789Z,5.1
2022-10-17T04:26:08.204Z,4.6
2022-10-17T04:28:08.324Z,6.5
2022-10-17T04:30:09.028Z,5.6
2022-10-17T04:32:14.014Z,5.3
2022-10-17T04:34:08.375Z,7.7
2022-10-17T04:36:14.022Z,6.3
2022-10-17T04:38:08.345Z,5.8
2022-10-17T04:40:09.873Z,5.1
2022-10-17T04:42:08.505Z,4.9
2022-10-17T04:44:11.772Z,5.9
2022-10-17T04:46:12.541Z,5.5
2022-10-17T04:48:09.159Z,6.8
2022-10-17T04:50:10.072Z,5.6
2022-10-17T04:52:17.771Z,5.6
2022-10-17T04:54:10.276Z,5.1
2022-10-17T04:56:10.126Z,5.7
2022-10-17T04:58:08.977Z,5.8
2022-10-17T05:00:25.508Z,5.2
2022-10-17T05:02:10.728Z,5.3
2022-10-17T05:04:09.251Z,6
2022-10-17T05:06:10.991Z,5.3
2022-10-17T05:08:10.422Z,5
2022-10-17T05:10:09.633Z,4.6
2022-10-17T05:12:10.421Z,5.2
2022-10-17T05:14:09.098Z,5.3
2022-10-17T05:16:09.599Z,5
2022-10-17T05:18:09.491Z,5
2022-10-17T05:20:11.174Z,5.3
2022-10-17T05:22:09.404Z,5.5
2022-10-17T05:24:12.777Z,5.3
2022-10-17T05:26:10.998Z,5.2
2022-10-17T05:28:09.650Z,5.6
2022-10-17T05:30:10.873Z,4.7
2022-10-17T05:32:09.463Z,5.4
2022-10-17T05:34:11.606Z,5.3
2022-10-17T05:36:10.240Z,5
2022-10-17T05:38:09.807Z,5.1
2022-10-17T05:40:10.404Z,5.6
2022-10-17T05:42:09.803Z,5.1
2022-10-17T05:44:15.452Z,5.3
2022-10-17T05:46:10.336Z,4.9
2022-10-17T05:48:09.626Z,4.5
2022-10-17T05:50:22.933Z,4.9
2022-10-17T05:52:18.052Z,5
2022-10-17T05:54:09.982Z,5.1
2022-10-17T05:56:11.972Z,4.8
2022-10-17T05:58:21.734Z,4.5
2022-10-17T06:00:21.819Z,4.9
2022-10-17T06:02:12.343Z,4.9
2022-10-17T06:04:11.239Z,4.8
2022-10-17T06:06:15.228Z,4.9
2022-10-17T06:08:10.523Z,4.7
2022-10-17T06:10:10.868Z,4.9
2022-10-17T06:12:10.159Z,4.6
2022-10-17T06:14:11.791Z,5
2022-10-17T06:16:10.419Z,5.3
2022-10-17T06:18:11.100Z,4.9
2022-10-17T06:20:11.041Z,5.2
2022-10-17T06:22:10.831Z,5.2
2022-10-17T06:24:13.640Z,4.9
2022-10-17T06:26:10.959Z,4.8
2022-10-17T06:28:10.941Z,5
2022-10-17T06:30:10.668Z,4.5
2022-10-17T06:32:14.121Z,5.1
2022-10-17T06:34:12.464Z,5.2
2022-10-17T06:36:13.823Z,4.5
2022-10-17T06:38:11.140Z,5.4
2022-10-17T06:40:13.145Z,5.5
2022-10-17T06:42:20.276Z,5
2022-10-17T06:44:26.463Z,4.8
2022-10-17T06:46:15.042Z,5
2022-10-17T06:48:16.958Z,5
2022-10-17T06:50:17.664Z,5
2022-10-17T06:52:20.552Z,5.5
2022-10-17T06:54:26.291Z,5.1
2022-10-17T06:56:27.520Z,4.8
2022-10-17T06:58:17.686Z,5.1
2022-10-17T07:00:17.646Z,5
2022-10-17T07:02:11.852Z,4.8
2022-10-17T07:04:11.734Z,4.7
2022-10-17T07:06:13.669Z,4.6
2022-10-17T07:08:12.626Z,5.4
2022-10-17T07:10:13.498Z,5.3
2022-10-17T07:12:16.304Z,5.2
2022-10-17T07:14:12.103Z,4.9
2022-10-17T07:16:14.065Z,4.6
2022-10-17T07:18:13.317Z,4.9
2022-10-17T07:20:12.667Z,4.7
2022-10-17T07:22:14.769Z,5.2
2022-10-17T07:24:15.076Z,5.4
2022-10-17T07:26:16.241Z,5.6
2022-10-17T07:28:14.201Z,5.1
2022-10-17T07:30:14.422Z,5.3
2022-10-17T07:32:17.497Z,4.9
2022-10-17T07:34:12.792Z,4.9
2022-10-17T07:36:13.879Z,5.1
2022-10-17T07:38:13.093Z,4.9
2022-10-17T07:40:12.963Z,5.1
2022-10-17T07:42:13.117Z,5.3
2022-10-17T07:44:17.877Z,5.3
2022-10-17T07:46:13.290Z,4.9
2022-10-17T07:48:13.288Z,5.2
2022-10-17T07:50:13.247Z,5.2
2022-10-17T07:52:14.375Z,4.8
2022-10-17T07:54:13.469Z,5
2022-10-17T07:56:13.738Z,5
2022-10-17T07:58:14.340Z,5.8
2022-10-17T08:00:14.809Z,6
2022-10-17T08:02:21.511Z,5.6
2022-10-17T08:04:13.763Z,6.1
2022-10-17T08:06:14.453Z,6.2
2022-10-17T08:08:14.008Z,6.7
2022-10-17T08:10:15.333Z,6.6
2022-10-17T08:12:14.416Z,6
2022-10-17T08:14:14.319Z,6.5
2022-10-17T08:16:14.148Z,6.6
2022-10-17T08:18:14.502Z,6.2
2022-10-17T08:20:14.376Z,7
2022-10-17T08:22:14.442Z,7.2
2022-10-17T08:24:14.403Z,6.7
2022-10-17T08:26:14.769Z,6.8
2022-10-17T08:28:14.801Z,7.3
2022-10-17T08:30:15.131Z,7.2
2022-10-17T08:32:14.735Z,7.4
2022-10-17T08:34:15.051Z,7.2
2022-10-17T08:36:16.582Z,7.7
2022-10-17T08:38:16.011Z,7.5
2022-10-17T08:40:20.257Z,7.4
2022-10-17T08:42:33.915Z,7.9
2022-10-17T08:44:24.573Z,8.5
2022-10-17T08:48:18.146Z,7.7
2022-10-17T08:50:34.595Z,7.8
2022-10-17T08:52:21.827Z,7.4
2022-10-17T08:54:19.776Z,8.3
2022-10-17T08:56:19.936Z,7.9
2022-10-17T08:58:21.002Z,8.1
2022-10-17T09:00:18.387Z,8.5
2022-10-17T09:02:32.781Z,8.4
2022-10-17T09:04:37.846Z,9.3
2022-10-17T09:06:24.429Z,7.7
2022-10-17T09:08:29.467Z,8.2
2022-10-17T09:10:24.767Z,8.1
2022-10-17T09:12:20.302Z,7.9
2022-10-17T09:14:29.933Z,7.9
2022-10-17T09:16:39.902Z,8.4
2022-10-17T09:18:22.173Z,8.5
2022-10-17T09:20:19.809Z,8.9
2022-10-17T09:22:19.739Z,7.9
2022-10-17T09:24:24.170Z,7.7
2022-10-17T09:26:15.890Z,7.9
2022-10-17T09:28:20.976Z,8
2022-10-17T09:30:44.124Z,7.5
2022-10-17T09:32:22.167Z,8.2
2022-10-17T09:34:16.397Z,7.8
2022-10-17T09:36:19.899Z,7.3
2022-10-17T09:38:18.355Z,7.6
2022-10-17T09:40:23.394Z,8
2022-10-17T09:42:22.416Z,7.7
2022-10-17T09:44:19.888Z,8.1
2022-10-17T09:46:24.969Z,8.1
2022-10-17T09:48:23.136Z,8.2
2022-10-17T09:50:23.016Z,8.1
2022-10-17T09:52:20.804Z,7.9
2022-10-17T09:54:22.454Z,7.7
2022-10-17T09:56:18.822Z,7.8
2022-10-17T09:58:16.629Z,8.6
2022-10-17T10:00:22.170Z,7.8
2022-10-17T10:02:20.538Z,7.5
2022-10-17T10:04:17.244Z,7.6
2022-10-17T10:06:18.468Z,8.1
2022-10-17T10:08:19.001Z,8.4
2022-10-17T10:10:27.750Z,8.5
2022-10-17T10:12:19.960Z,8.1
2022-10-17T10:14:22.094Z,7.7
2022-10-17T10:16:21.045Z,8
2022-10-17T10:18:34.517Z,8.1
2022-10-17T10:20:29.136Z,7.9
2022-10-17T10:22:19.829Z,7.8
2022-10-17T10:24:17.560Z,8
2022-10-17T10:26:22.297Z,8.6
2022-10-17T10:28:17.875Z,8.3
2022-10-17T10:30:20.693Z,8
2022-10-17T10:32:21.638Z,8.6
2022-10-17T10:34:21.577Z,9
2022-10-17T10:36:18.268Z,9
2022-10-17T10:38:20.262Z,8.3
2022-10-17T10:40:22.235Z,7.8
2022-10-17T10:42:22.315Z,8.7
2022-10-17T10:44:23.032Z,8.6
2022-10-17T10:46:20.927Z,8.4
2022-10-17T10:48:21.658Z,8
2022-10-17T10:50:27.414Z,8.6
2022-10-17T10:52:29.829Z,8
2022-10-17T10:54:24.022Z,7.3
2022-10-17T10:56:22.244Z,7.6
2022-10-17T10:58:38.945Z,7.4
2022-10-17T11:00:23.981Z,8.1
2022-10-17T11:02:27.633Z,7.6
2022-10-17T11:04:27.158Z,7
2022-10-17T11:06:26.700Z,7.2
2022-10-17T11:08:28.063Z,7.8
2022-10-17T11:10:27.584Z,7.1
2022-10-17T11:12:24.459Z,7.4
2022-10-17T11:14:39.009Z,7.1
2022-10-17T11:16:29.934Z,8.1
2022-10-17T11:18:25.935Z,7.2
2022-10-17T11:20:28.941Z,7.6
2022-10-17T11:22:29.230Z,8
2022-10-17T11:24:24.339Z,8.4
2022-10-17T11:26:25.275Z,7.5
2022-10-17T11:28:22.956Z,7.5
2022-10-17T11:30:26.287Z,8
2022-10-17T11:32:27.700Z,7.5
2022-10-17T11:34:25.375Z,7.3
2022-10-17T11:36:26.685Z,7.8
2022-10-17T11:38:39.267Z,7.2
2022-10-17T11:40:29.048Z,6.8
2022-10-17T11:42:27.133Z,6.6
2022-10-17T11:44:28.583Z,6.9
2022-10-17T11:46:24.704Z,7.3
2022-10-17T11:48:28.293Z,6.8
2022-10-17T11:52:54.943Z,7.5
2022-10-17T11:54:28.126Z,7.3
2022-10-17T11:56:31.889Z,7.2
2022-10-17T11:58:31.968Z,7
2022-10-17T12:00:32.648Z,6.9
2022-10-17T12:02:32.572Z,7.4
2022-10-17T12:04:38.942Z,7
2022-10-17T12:06:38.801Z,7.6
2022-10-17T12:08:31.330Z,7.3
2022-10-17T12:10:34.379Z,8
2022-10-17T12:12:26.039Z,7.7
2022-10-17T12:14:40.411Z,7.7
2022-10-17T12:16:43.287Z,7.6
2022-10-17T12:18:25.714Z,7.1
2022-10-17T12:20:29.065Z,8.5
2022-10-17T12:22:26.045Z,7.9
2022-10-17T12:24:33.941Z,7.2
2022-10-17T12:26:26.663Z,7.3
2022-10-17T12:28:29.439Z,6.5
2022-10-17T12:30:26.961Z,7
2022-10-17T12:32:30.217Z,6.6
2022-10-17T12:34:25.202Z,7.2
2022-10-17T12:36:38.136Z,6.9
2022-10-17T12:38:26.901Z,7.2
2022-10-17T12:40:54.865Z,7.1
2022-10-17T12:42:31.951Z,7.1
2022-10-17T12:44:40.389Z,6.6
2022-10-17T12:46:43.071Z,7.8
2022-10-17T12:48:55.249Z,20
2022-10-17T12:50:56.540Z,22
2022-10-17T12:52:47.843Z,15
2022-10-17T12:54:26.224Z,25.9
2022-10-17T12:56:37.741Z,31.5
2022-10-17T12:58:27.670Z,10.4
2022-10-17T13:00:34.187Z,8.4
2022-10-17T13:02:29.106Z,8.6
2022-10-17T13:04:29.405Z,8.5
2022-10-17T13:06:29.122Z,7.5
2022-10-17T13:08:29.857Z,9.9
2022-10-17T13:10:29.244Z,8.7
2022-10-17T13:12:27.853Z,9.2
2022-10-17T13:14:29.460Z,7.9
2022-10-17T13:16:29.183Z,7.7
2022-10-17T13:18:29.290Z,7.6
2022-10-17T13:20:31.767Z,7
2022-10-17T13:22:31.010Z,7.6
2022-10-17T13:24:30.751Z,7.2
2022-10-17T13:26:28.406Z,8
2022-10-17T13:28:28.424Z,6.9
2022-10-17T13:30:32.234Z,7.1
2022-10-17T13:32:36.055Z,7.3
2022-10-17T13:34:29.324Z,7.5
2022-10-17T13:36:30.603Z,7.3
2022-10-17T13:38:31.582Z,7.6
2022-10-17T13:40:44.655Z,6.7
2022-10-17T13:42:31.350Z,7.6
2022-10-17T13:44:35.184Z,7.6
2022-10-17T13:46:39.251Z,7.8
2022-10-17T13:48:32.669Z,7.5
2022-10-17T13:50:44.271Z,7.8
2022-10-17T13:52:30.487Z,7.6
2022-10-17T13:54:34.569Z,8.5
2022-10-17T13:56:30.433Z,8.5
2022-10-17T13:58:31.828Z,7.7
2022-10-17T14:00:30.269Z,8
2022-10-17T14:02:32.180Z,7.9
2022-10-17T14:04:39.987Z,8.4
2022-10-17T14:06:31.241Z,7.9
2022-10-17T14:08:32.652Z,7.6
2022-10-17T14:10:33.512Z,7.8
2022-10-17T14:12:31.588Z,8.3
2022-10-17T14:14:41.678Z,8.5
2022-10-17T14:16:40.927Z,8.1
2022-10-17T14:18:36.382Z,8.3
2022-10-17T14:21:08.213Z,7.9
2022-10-17T14:22:35.721Z,8.3
2022-10-17T14:24:35.064Z,8.3
2022-10-17T14:26:31.399Z,8.3
2022-10-17T14:28:31.603Z,8.3
2022-10-17T14:30:55.266Z,7.8
2022-10-17T14:34:35.055Z,8.1
2022-10-17T14:36:36.063Z,8.5
2022-10-17T14:38:32.086Z,8.7
2022-10-17T14:40:34.127Z,8.7
2022-10-17T14:42:37.804Z,8.4
2022-10-17T14:44:34.601Z,9.5
2022-10-17T14:46:34.270Z,8.4
2022-10-17T14:48:33.095Z,11.1
2022-10-17T14:50:32.866Z,10
2022-10-17T14:52:33.578Z,9.4
2022-10-17T14:54:35.491Z,8.9
2022-10-17T14:56:36.877Z,10.1
2022-10-17T14:58:33.391Z,9
2022-10-17T15:00:32.857Z,8
2022-10-17T15:02:33.430Z,8
2022-10-17T15:04:33.028Z,8.5
2022-10-17T15:06:34.194Z,7.9
2022-10-17T15:08:33.402Z,8.1
2022-10-17T15:10:35.688Z,8
2022-10-17T15:12:33.534Z,7.9
2022-10-17T15:14:33.556Z,8
2022-10-17T15:16:34.501Z,8.1
2022-10-17T15:18:33.609Z,8.6
2022-10-17T15:20:34.306Z,8.2
2022-10-17T15:22:33.867Z,7.8
2022-10-17T15:24:33.906Z,8.6
2022-10-17T15:26:34.957Z,8.3
2022-10-17T15:28:34.107Z,7.8
2022-10-17T15:30:35.707Z,7.4
2022-10-17T15:32:34.343Z,7.4
2022-10-17T15:34:34.407Z,8.1
2022-10-17T15:36:39.075Z,7.7
2022-10-17T15:38:34.525Z,8.4
2022-10-17T15:40:34.625Z,7.4
2022-10-17T15:42:34.978Z,8.3
2022-10-17T15:44:34.861Z,7.4
2022-10-17T15:46:35.394Z,8.2
2022-10-17T15:48:35.101Z,8.6
2022-10-17T15:50:35.192Z,8.2
2022-10-17T15:52:35.170Z,8
2022-10-17T15:54:35.287Z,7.9
2022-10-17T15:56:38.008Z,7.7
2022-10-17T15:58:39.258Z,7.5
2022-10-17T16:00:35.537Z,9.2
2022-10-17T16:02:35.699Z,8.8
2022-10-17T16:04:35.650Z,8.9
2022-10-17T16:06:35.766Z,8.3
2022-10-17T16:08:35.844Z,8.1
2022-10-17T16:10:38.891Z,8.6
2022-10-17T16:12:36.019Z,8.6
2022-10-17T16:14:36.319Z,8.5
2022-10-17T16:16:36.226Z,8.5
2022-10-17T16:18:37.685Z,7.8
2022-10-17T16:20:37.642Z,8.3
2022-10-17T16:22:37.894Z,8.8
2022-10-17T16:24:36.523Z,7.8
2022-10-17T16:26:36.586Z,8.2
2022-10-17T16:28:36.646Z,8.5
2022-10-17T16:30:42.066Z,7.6
2022-10-17T16:32:36.869Z,8.2
2022-10-17T16:34:37.017Z,8.3
2022-10-17T16:36:37.008Z,8.9
2022-10-17T16:38:37.026Z,8.1
2022-10-17T16:40:38.169Z,7.9
2022-10-17T16:42:37.733Z,8
2022-10-17T16:44:37.339Z,7.8
2022-10-17T16:46:37.495Z,7.8
2022-10-17T16:48:37.510Z,8.3
2022-10-17T16:50:39.318Z,8.2
2022-10-17T16:52:37.620Z,7.7
2022-10-17T16:54:37.743Z,8.1
2022-10-17T16:56:37.755Z,8.1
2022-10-17T16:58:38.236Z,8.1
2022-10-17T17:00:38.934Z,10.1
2022-10-17T17:02:38.088Z,8
2022-10-17T17:04:38.221Z,7.8
2022-10-17T17:06:38.185Z,8.2
2022-10-17T17:08:38.399Z,7.6
2022-10-17T17:10:43.858Z,7.2
2022-10-17T17:12:38.385Z,7.7
2022-10-17T17:14:38.644Z,8.2
2022-10-17T17:16:38.518Z,7.6
2022-10-17T17:18:39.275Z,7.5
2022-10-17T17:20:38.671Z,7.4
2022-10-17T17:22:38.741Z,7
2022-10-17T17:24:38.992Z,7
2022-10-17T17:26:38.914Z,7.7
2022-10-17T17:28:40.115Z,7.4
2022-10-17T17:30:39.165Z,8.4
2022-10-17T17:32:39.440Z,7.8
2022-10-17T17:34:39.395Z,7.5
2022-10-17T17:36:39.859Z,7.7
2022-10-17T17:38:39.490Z,7.3
2022-10-17T17:40:48.273Z,7.6
2022-10-17T17:42:40.095Z,7.3
2022-10-17T17:44:39.844Z,7.5
2022-10-17T17:46:39.941Z,7.4
2022-10-17T17:48:41.560Z,6.9
2022-10-17T17:50:41.956Z,7.5
2022-10-17T17:52:40.179Z,7.7
2022-10-17T17:54:41.101Z,7.1
2022-10-17T17:56:40.479Z,7.5
2022-10-17T17:58:41.357Z,6.9
2022-10-17T18:00:40.933Z,7.2
2022-10-17T18:02:42.260Z,7.2
2022-10-17T18:04:40.738Z,6.7
2022-10-17T18:06:40.946Z,7.1
2022-10-17T18:08:43.995Z,7.8
2022-10-17T18:10:45.818Z,6.7
2022-10-17T18:12:41.283Z,6.6
2022-10-17T18:14:41.299Z,6.8
2022-10-17T18:16:41.331Z,6.6
2022-10-17T18:18:43.046Z,6.4
2022-10-17T18:20:42.272Z,7
2022-10-17T18:22:41.592Z,6.8
2022-10-17T18:24:41.841Z,7.1
2022-10-17T18:26:41.706Z,6.9
2022-10-17T18:28:43.746Z,6
2022-10-17T18:30:41.920Z,6.7
2022-10-17T18:32:42.027Z,6
2022-10-17T18:34:42.289Z,5.9
2022-10-17T18:36:42.210Z,6.4
2022-10-17T18:38:42.434Z,6.3
2022-10-17T18:40:44.138Z,6
2022-10-17T18:42:42.833Z,6
2022-10-17T18:44:42.730Z,6.5
2022-10-17T18:46:42.815Z,6.2
2022-10-17T18:48:44.406Z,5.7
2022-10-17T18:50:42.888Z,6.5
2022-10-17T18:52:43.100Z,6.3
2022-10-17T18:54:43.272Z,6.5
2022-10-17T18:56:43.306Z,6.2
2022-10-17T18:58:43.627Z,5.9
2022-10-17T19:00:43.603Z,5.8
2022-10-17T19:02:43.964Z,5.9
2022-10-17T19:04:43.736Z,5.9
2022-10-17T19:06:44.237Z,6.1
2022-10-17T19:08:44.885Z,5.6
2022-10-17T19:10:44.058Z,6.1
2022-10-17T19:12:44.508Z,6.1
2022-10-17T19:14:44.713Z,6.7
2022-10-17T19:16:46.293Z,6.3
2022-10-17T19:18:49.338Z,5.6
2022-10-17T19:20:44.655Z,5.6
2022-10-17T19:22:44.861Z,5.5
2022-10-17T19:24:44.934Z,6.1
2022-10-17T19:26:46.317Z,6
2022-10-17T19:28:45.397Z,5.8
2022-10-17T19:30:45.242Z,5.8
2022-10-17T19:32:45.687Z,5.5
2022-10-17T19:34:45.523Z,5.2
2022-10-17T19:36:46.114Z,5.3
2022-10-17T19:38:45.844Z,4.8
2022-10-17T19:40:45.839Z,5.2
2022-10-17T19:42:46.160Z,4.8
2022-10-17T19:44:46.047Z,4.9
2022-10-17T19:46:46.264Z,5.2
2022-10-17T19:48:47.641Z,4.8
2022-10-17T19:50:46.430Z,4.8
2022-10-17T19:52:46.549Z,5.2
2022-10-17T19:54:46.765Z,4.8
2022-10-17T19:56:47.714Z,5
2022-10-17T19:58:48.217Z,4.9
2022-10-17T20:00:47.399Z,4.8
2022-10-17T20:02:47.317Z,4.8
2022-10-17T20:04:54.662Z,5
2022-10-17T20:06:47.366Z,4.9
2022-10-17T20:08:48.045Z,5
2022-10-17T20:10:47.521Z,4.8
2022-10-17T20:12:47.665Z,5.1
2022-10-17T20:14:47.684Z,5
2022-10-17T20:16:51.513Z,4.7
2022-10-17T20:18:48.534Z,4.8
2022-10-17T20:20:48.522Z,5.3
2022-10-17T20:22:48.157Z,5.1
2022-10-17T20:24:48.315Z,5.4
2022-10-17T20:26:48.442Z,4.8
2022-10-17T20:28:49.457Z,4.8
2022-10-17T20:30:48.568Z,5
2022-10-17T20:32:48.788Z,4.4
2022-10-17T20:34:48.853Z,4.5
2022-10-17T20:36:53.418Z,4.6
2022-10-17T20:38:54.540Z,4.6
2022-10-17T20:40:49.161Z,4.5
2022-10-17T20:42:49.331Z,4.9
2022-10-17T20:44:49.351Z,4.4
2022-10-17T20:47:01.309Z,4.8
2022-10-17T20:48:51.191Z,4.1
2022-10-17T20:50:50.354Z,4.4
2022-10-17T20:52:56.447Z,4.6
2022-10-17T20:54:49.942Z,4.1
2022-10-17T20:56:50.090Z,4.3
2022-10-17T20:58:51.921Z,4.3
2022-10-17T21:00:50.230Z,4.3
2022-10-17T21:02:50.536Z,4.3
2022-10-17T21:04:50.654Z,4.2
2022-10-17T21:06:51.085Z,4.2
2022-10-17T21:08:52.855Z,4.3
2022-10-17T21:10:50.866Z,3.9
2022-10-17T21:12:54.221Z,4
2022-10-17T21:14:51.085Z,4.4
2022-10-17T21:16:51.623Z,4.5
2022-10-17T21:18:51.975Z,4.4
2022-10-17T21:20:51.408Z,4.1
2022-10-17T21:22:51.522Z,4.1
2022-10-17T21:24:51.634Z,4.1
2022-10-17T21:26:51.783Z,4.4
2022-10-17T21:28:52.284Z,4.4
2022-10-17T21:30:51.908Z,4.4
2022-10-17T21:32:53.919Z,4.1
2022-10-17T21:34:52.115Z,4.3
2022-10-17T21:36:52.433Z,4.5
2022-10-17T21:38:54.246Z,4.2
2022-10-17T21:40:55.244Z,4.5
2022-10-17T21:42:52.653Z,4
2022-10-17T21:44:52.817Z,4.2
2022-10-17T21:46:54.143Z,4.2
2022-10-17T21:48:53.420Z,4.4
2022-10-17T21:50:56.893Z,4.3
2022-10-17T21:52:53.261Z,4.2
2022-10-17T21:54:53.360Z,4.2
2022-10-17T21:56:53.298Z,4.7
2022-10-17T21:58:54.233Z,4.4
2022-10-17T22:00:53.659Z,4.2
2022-10-17T22:02:53.652Z,4.2
2022-10-17T22:04:53.727Z,3.9
2022-10-17T22:06:53.779Z,4.6
2022-10-17T22:08:54.765Z,4.3
2022-10-17T22:10:54.178Z,4.5
2022-10-17T22:12:54.088Z,4.5
2022-10-17T22:14:54.126Z,4.1
2022-10-17T22:16:54.637Z,4.4
2022-10-17T22:18:56.061Z,4
2022-10-17T22:20:54.598Z,4.3
2022-10-17T22:22:54.604Z,4.1
2022-10-17T22:24:54.652Z,4
2022-10-17T22:26:54.748Z,4.3
2022-10-17T22:28:55.446Z,3.8
2022-10-17T22:30:55.303Z,4
2022-10-17T22:32:54.918Z,3.8
2022-10-17T22:34:54.991Z,3.7
2022-10-17T22:36:55.110Z,3.7
2022-10-17T22:38:55.186Z,3.8
2022-10-17T22:40:55.435Z,4
2022-10-17T22:42:55.928Z,3.6
2022-10-17T22:44:55.743Z,4
2022-10-17T22:46:55.666Z,3.9
2022-10-17T22:48:55.691Z,4
2022-10-17T22:50:57.306Z,3.8
2022-10-17T22:52:55.947Z,3.5
2022-10-17T22:54:56.098Z,3.8
2022-10-17T22:56:56.173Z,3.8
2022-10-17T22:58:56.163Z,3.7
2022-10-17T23:00:57.736Z,3.7
2022-10-17T23:02:56.450Z,3.6
2022-10-17T23:04:56.468Z,3.8
2022-10-17T23:06:56.559Z,3.6
2022-10-17T23:08:56.770Z,4.1
2022-10-17T23:10:57.330Z,4.1
2022-10-17T23:12:56.960Z,3.5
2022-10-17T23:14:57.064Z,3.3
2022-10-17T23:16:57.207Z,3.6
2022-10-17T23:18:57.500Z,3
2022-10-17T23:20:57.564Z,3.4
2022-10-17T23:22:57.830Z,3.4
2022-10-17T23:24:57.665Z,3.8
2022-10-17T23:26:57.941Z,3.4
2022-10-17T23:28:57.945Z,3.4
2022-10-17T23:30:58.141Z,3.3
2022-10-17T23:32:58.487Z,3.7
2022-10-17T23:34:58.380Z,3.3
2022-10-17T23:36:58.360Z,3.6
2022-10-17T23:38:58.753Z,3.1
2022-10-17T23:40:58.574Z,3.7
2022-10-17T23:42:58.665Z,3.3
2022-10-17T23:44:58.904Z,2.9
2022-10-17T23:46:58.916Z,3.3
2022-10-17T23:48:59.107Z,3.3
2022-10-17T23:50:59.433Z,3.2
2022-10-17T23:52:59.315Z,3.4
2022-10-17T23:54:59.596Z,3.2
2022-10-17T23:56:59.624Z,3.5
2022-10-17T23:58:59.741Z,3
